createdAt,value
2017-12-19T00:00:40.760Z,1021.01
2017-12-19T00:01:40.750Z,1021.02
2017-12-19T00:02:40.742Z,1021.07
2017-12-19T00:03:40.731Z,1021.09
2017-12-19T00:04:40.720Z,1021.06
2017-12-19T00:05:40.712Z,1021.09
2017-12-19T00:06:40.702Z,1021.11
2017-12-19T00:07:40.765Z,1021.13
2017-12-19T00:08:40.690Z,1021.15
2017-12-19T00:09:40.679Z,1021.14
2017-12-19T00:10:40.671Z,1021.10
2017-12-19T00:11:40.662Z,1021.10
2017-12-19T00:12:40.653Z,1021.08
2017-12-19T00:13:40.644Z,1021.11
2017-12-19T00:14:40.634Z,1021.14
2017-12-19T00:15:40.688Z,1021.13
2017-12-19T00:16:40.612Z,1021.09
2017-12-19T00:17:40.624Z,1021.09
2017-12-19T00:18:40.599Z,1021.11
2017-12-19T00:19:40.590Z,1021.12
2017-12-19T00:20:40.582Z,1021.15
2017-12-19T00:21:40.573Z,1021.12
2017-12-19T00:22:40.663Z,1021.16
2017-12-19T00:23:40.569Z,1021.23
2017-12-19T00:24:40.548Z,1021.24
2017-12-19T00:25:40.537Z,1021.29
2017-12-19T00:26:40.527Z,1021.28
2017-12-19T00:27:40.519Z,1021.30
2017-12-19T00:28:40.694Z,1021.34
2017-12-19T00:29:40.579Z,1021.38
2017-12-19T00:30:40.496Z,1021.35
2017-12-19T00:31:40.489Z,1021.40
2017-12-19T00:32:40.486Z,1021.39
2017-12-19T00:33:40.515Z,1021.42
2017-12-19T00:34:40.543Z,1021.47
2017-12-19T00:35:40.564Z,1021.49
2017-12-19T00:36:40.699Z,1021.56
2017-12-19T00:37:40.448Z,1021.52
2017-12-19T00:38:40.422Z,1021.47
2017-12-19T00:39:40.425Z,1021.46
2017-12-19T00:40:40.408Z,1021.40
2017-12-19T00:41:40.401Z,1021.39
2017-12-19T00:42:40.386Z,1021.39
2017-12-19T00:43:40.378Z,1021.42
2017-12-19T00:44:40.364Z,1021.41
2017-12-19T00:45:40.361Z,1021.44
2017-12-19T00:46:40.353Z,1021.46
2017-12-19T00:47:40.348Z,1021.51
2017-12-19T00:48:40.409Z,1021.50
2017-12-19T00:49:40.327Z,1021.48
2017-12-19T00:50:40.406Z,1021.49
2017-12-19T00:51:40.308Z,1021.42
2017-12-19T00:52:40.299Z,1021.44
2017-12-19T00:53:40.290Z,1021.57
2017-12-19T00:54:40.282Z,1021.60
2017-12-19T00:55:40.272Z,1021.61
2017-12-19T00:56:40.266Z,1021.60
2017-12-19T00:57:40.247Z,1021.63
2017-12-19T00:58:40.246Z,1021.57
2017-12-19T00:59:40.239Z,1021.54
2017-12-19T01:00:40.231Z,1021.58
2017-12-19T01:01:40.220Z,1021.61
2017-12-19T01:02:40.210Z,1021.64
2017-12-19T01:03:40.203Z,1021.64
2017-12-19T01:04:40.222Z,1021.69
2017-12-19T01:05:40.228Z,1021.71
2017-12-19T01:06:40.175Z,1021.70
2017-12-19T01:07:40.167Z,1021.73
2017-12-19T01:08:40.156Z,1021.73
2017-12-19T01:09:40.148Z,1021.76
2017-12-19T01:10:40.141Z,1021.79
2017-12-19T01:11:40.160Z,1021.80
2017-12-19T01:12:40.272Z,1021.85
2017-12-19T01:13:40.112Z,1021.84
2017-12-19T01:14:40.103Z,1021.84
2017-12-19T01:15:40.094Z,1021.87
2017-12-19T01:16:40.086Z,1021.90
2017-12-19T01:17:40.074Z,1021.88
2017-12-19T01:18:40.068Z,1021.92
2017-12-19T01:19:40.110Z,1021.96
2017-12-19T01:20:40.077Z,1022.01
2017-12-19T01:21:40.043Z,1022.07
2017-12-19T01:22:40.036Z,1022.03
2017-12-19T01:23:40.027Z,1022.07
2017-12-19T01:24:40.015Z,1022.11
2017-12-19T01:25:40.006Z,1022.12
2017-12-19T01:26:39.996Z,1022.15
2017-12-19T01:27:39.989Z,1022.10
2017-12-19T01:28:39.979Z,1022.10
2017-12-19T01:29:40.021Z,1022.05
2017-12-19T01:30:40.045Z,1022.09
2017-12-19T01:31:39.951Z,1022.17
2017-12-19T01:32:39.945Z,1022.20
2017-12-19T01:33:39.935Z,1022.21
2017-12-19T01:34:39.925Z,1022.19
2017-12-19T01:35:39.917Z,1022.13
2017-12-19T01:36:39.981Z,1022.14
2017-12-19T01:37:39.899Z,1022.11
2017-12-19T01:38:39.891Z,1022.11
2017-12-19T01:39:39.882Z,1022.08
2017-12-19T01:40:39.878Z,1022.09
2017-12-19T01:41:39.863Z,1022.10
2017-12-19T01:42:39.856Z,1022.11
2017-12-19T01:43:39.851Z,1022.09
2017-12-19T01:44:39.837Z,1022.11
2017-12-19T01:45:39.831Z,1022.12
2017-12-19T01:46:39.820Z,1022.11
2017-12-19T01:47:39.857Z,1022.18
2017-12-19T01:48:39.809Z,1022.19
2017-12-19T01:49:39.793Z,1022.20
2017-12-19T01:50:39.786Z,1022.20
2017-12-19T01:51:39.777Z,1022.17
2017-12-19T01:52:39.769Z,1022.22
2017-12-19T01:53:39.758Z,1022.26
2017-12-19T01:54:39.758Z,1022.28
2017-12-19T01:55:39.737Z,1022.33
2017-12-19T01:56:39.731Z,1022.33
2017-12-19T01:57:39.723Z,1022.32
2017-12-19T01:58:39.714Z,1022.36
2017-12-19T01:59:39.707Z,1022.37
2017-12-19T02:00:39.698Z,1022.36
2017-12-19T02:01:39.962Z,1022.38
2017-12-19T02:02:39.766Z,1022.38
2017-12-19T02:03:39.670Z,1022.37
2017-12-19T02:04:39.659Z,1022.40
2017-12-19T02:05:39.649Z,1022.40
2017-12-19T02:06:39.645Z,1022.44
2017-12-19T02:07:39.634Z,1022.47
2017-12-19T02:08:39.623Z,1022.43
2017-12-19T02:09:39.616Z,1022.47
2017-12-19T02:10:39.609Z,1022.49
2017-12-19T02:11:39.597Z,1022.46
2017-12-19T02:12:39.588Z,1022.45
2017-12-19T02:13:39.607Z,1022.47
2017-12-19T02:14:39.571Z,1022.52
2017-12-19T02:15:39.564Z,1022.54
2017-12-19T02:16:39.556Z,1022.59
2017-12-19T02:17:39.544Z,1022.63
2017-12-19T02:18:39.536Z,1022.66
2017-12-19T02:19:39.527Z,1022.66
2017-12-19T02:20:39.519Z,1022.71
2017-12-19T02:21:39.510Z,1022.78
2017-12-19T02:22:39.500Z,1022.89
2017-12-19T02:23:39.497Z,1022.90
2017-12-19T02:24:39.487Z,1022.92
2017-12-19T02:25:39.471Z,1022.91
2017-12-19T02:26:39.456Z,1022.92
2017-12-19T02:27:39.464Z,1022.93
2017-12-19T02:28:39.500Z,1022.96
2017-12-19T02:29:39.438Z,1022.91
2017-12-19T02:30:39.430Z,1022.90
2017-12-19T02:31:39.421Z,1022.87
2017-12-19T02:32:39.413Z,1022.87
2017-12-19T02:33:39.402Z,1022.86
2017-12-19T02:34:39.411Z,1022.85
2017-12-19T02:35:39.387Z,1022.83
2017-12-19T02:36:39.378Z,1022.76
2017-12-19T02:37:39.404Z,1022.74
2017-12-19T02:38:39.385Z,1022.75
2017-12-19T02:39:39.350Z,1022.74
2017-12-19T02:40:39.345Z,1022.72
2017-12-19T02:41:39.336Z,1022.67
2017-12-19T02:42:39.332Z,1022.65
2017-12-19T02:43:39.315Z,1022.69
2017-12-19T02:44:39.298Z,1022.68
2017-12-19T02:45:39.330Z,1022.69
2017-12-19T02:46:48.738Z,1022.62
2017-12-19T02:47:39.281Z,1022.58
2017-12-19T02:48:39.272Z,1022.58
2017-12-19T02:49:39.264Z,1022.55
2017-12-19T02:50:39.460Z,1022.49
2017-12-19T02:51:39.250Z,1022.50
2017-12-19T02:52:39.238Z,1022.50
2017-12-19T02:53:39.229Z,1022.54
2017-12-19T02:54:39.222Z,1022.59
2017-12-19T02:55:39.210Z,1022.62
2017-12-19T02:56:39.204Z,1022.66
2017-12-19T02:57:39.194Z,1022.66
2017-12-19T02:58:39.184Z,1022.67
2017-12-19T02:59:39.176Z,1022.66
2017-12-19T03:00:39.228Z,1022.65
2017-12-19T03:01:39.148Z,1022.68
2017-12-19T03:02:39.150Z,1022.58
2017-12-19T03:03:39.139Z,1022.66
2017-12-19T03:04:39.204Z,1022.67
2017-12-19T03:05:39.124Z,1022.66
2017-12-19T03:06:39.114Z,1022.66
2017-12-19T03:07:39.106Z,1022.68
2017-12-19T03:08:39.118Z,1022.77
2017-12-19T03:09:39.089Z,1022.78
2017-12-19T03:10:39.082Z,1022.79
2017-12-19T03:11:39.071Z,1022.77
2017-12-19T03:12:39.062Z,1022.78
2017-12-19T03:13:39.052Z,1022.80
2017-12-19T03:14:39.077Z,1022.78
2017-12-19T03:15:39.025Z,1022.77
2017-12-19T03:16:39.033Z,1022.76
2017-12-19T03:17:39.020Z,1022.81
2017-12-19T03:18:39.008Z,1022.83
2017-12-19T03:19:39.001Z,1022.88
2017-12-19T03:20:38.990Z,1022.89
2017-12-19T03:21:38.983Z,1022.87
2017-12-19T03:22:39.008Z,1022.87
2017-12-19T03:23:39.015Z,1022.90
2017-12-19T03:24:38.957Z,1022.84
2017-12-19T03:25:38.947Z,1022.82
2017-12-19T03:26:38.939Z,1022.75
2017-12-19T03:27:38.932Z,1022.78
2017-12-19T03:28:38.921Z,1022.84
2017-12-19T03:29:38.940Z,1022.82
2017-12-19T03:30:38.919Z,1022.86
2017-12-19T03:31:38.901Z,1022.88
2017-12-19T03:32:38.885Z,1022.84
2017-12-19T03:33:38.878Z,1022.81
2017-12-19T03:34:38.867Z,1022.77
2017-12-19T03:35:38.860Z,1022.74
2017-12-19T03:36:38.850Z,1022.78
2017-12-19T03:37:38.869Z,1022.81
2017-12-19T03:38:38.868Z,1022.83
2017-12-19T03:39:38.825Z,1022.86
2017-12-19T03:40:38.871Z,1022.88
2017-12-19T03:41:38.806Z,1022.86
2017-12-19T03:42:38.797Z,1022.85
2017-12-19T03:43:38.788Z,1022.89
2017-12-19T03:44:38.781Z,1022.94
2017-12-19T03:45:38.771Z,1022.92
2017-12-19T03:46:38.761Z,1022.89
2017-12-19T03:47:38.754Z,1022.94
2017-12-19T03:48:38.900Z,1022.92
2017-12-19T03:49:38.736Z,1022.90
2017-12-19T03:50:38.726Z,1022.88
2017-12-19T03:51:38.719Z,1022.84
2017-12-19T03:52:38.710Z,1022.89
2017-12-19T03:53:38.759Z,1022.84
2017-12-19T03:54:38.692Z,1022.81
2017-12-19T03:55:38.682Z,1022.79
2017-12-19T03:56:38.676Z,1022.82
2017-12-19T03:57:38.664Z,1022.78
2017-12-19T03:58:38.658Z,1022.80
2017-12-19T03:59:38.671Z,1022.82
2017-12-19T04:00:38.639Z,1022.83
2017-12-19T04:01:38.664Z,1022.82
2017-12-19T04:02:38.622Z,1022.85
2017-12-19T04:03:38.614Z,1022.90
2017-12-19T04:04:38.605Z,1022.92
2017-12-19T04:05:38.595Z,1022.98
2017-12-19T04:06:38.587Z,1022.93
2017-12-19T04:07:38.578Z,1022.97
2017-12-19T04:08:38.698Z,1022.95
2017-12-19T04:09:38.585Z,1022.92
2017-12-19T04:10:38.553Z,1022.96
2017-12-19T04:11:38.544Z,1022.92
2017-12-19T04:12:38.536Z,1022.92
2017-12-19T04:13:38.525Z,1022.94
2017-12-19T04:14:38.518Z,1023.00
2017-12-19T04:15:38.509Z,1023.00
2017-12-19T04:16:38.502Z,1023.02
2017-12-19T04:17:38.492Z,1023.02
2017-12-19T04:18:38.473Z,1023.08
2017-12-19T04:19:38.472Z,1023.09
2017-12-19T04:20:38.465Z,1023.07
2017-12-19T04:21:38.458Z,1023.05
2017-12-19T04:22:38.705Z,1023.03
2017-12-19T04:23:38.438Z,1023.07
2017-12-19T04:24:38.429Z,1023.01
2017-12-19T04:25:38.421Z,1023.01
2017-12-19T04:26:38.411Z,1023.08
2017-12-19T04:27:38.404Z,1023.09
2017-12-19T04:28:38.396Z,1023.08
2017-12-19T04:29:38.442Z,1023.09
2017-12-19T04:30:38.378Z,1023.09
2017-12-19T04:31:38.368Z,1023.14
2017-12-19T04:32:38.358Z,1023.17
2017-12-19T04:33:38.395Z,1023.16
2017-12-19T04:34:38.342Z,1023.16
2017-12-19T04:35:38.332Z,1023.17
2017-12-19T04:36:38.328Z,1023.21
2017-12-19T04:37:38.317Z,1023.22
2017-12-19T04:38:38.306Z,1023.23
2017-12-19T04:39:38.298Z,1023.20
2017-12-19T04:40:38.282Z,1023.21
2017-12-19T04:41:38.281Z,1023.24
2017-12-19T04:42:38.270Z,1023.23
2017-12-19T04:43:38.263Z,1023.19
2017-12-19T04:44:38.254Z,1023.17
2017-12-19T04:45:38.244Z,1023.15
2017-12-19T04:46:38.235Z,1023.17
2017-12-19T04:47:38.228Z,1023.22
2017-12-19T04:48:38.216Z,1023.19
2017-12-19T04:49:38.210Z,1023.19
2017-12-19T04:50:38.199Z,1023.24
2017-12-19T04:51:38.192Z,1023.28
2017-12-19T04:52:38.181Z,1023.28
2017-12-19T04:53:38.174Z,1023.29
2017-12-19T04:54:38.164Z,1023.34
2017-12-19T04:55:38.158Z,1023.37
2017-12-19T04:56:38.149Z,1023.40
2017-12-19T04:57:38.128Z,1023.40
2017-12-19T04:58:38.141Z,1023.40
2017-12-19T04:59:38.124Z,1023.46
2017-12-19T05:00:38.112Z,1023.51
2017-12-19T05:01:38.102Z,1023.52
2017-12-19T05:02:38.149Z,1023.52
2017-12-19T05:03:38.074Z,1023.56
2017-12-19T05:04:38.141Z,1023.56
2017-12-19T05:05:38.067Z,1023.57
2017-12-19T05:06:38.058Z,1023.59
2017-12-19T05:07:38.050Z,1023.60
2017-12-19T05:08:38.040Z,1023.60
2017-12-19T05:09:38.031Z,1023.58
2017-12-19T05:10:38.040Z,1023.63
2017-12-19T05:11:38.033Z,1023.67
2017-12-19T05:12:38.005Z,1023.67
2017-12-19T05:13:37.994Z,1023.65
2017-12-19T05:14:37.988Z,1023.63
2017-12-19T05:15:37.983Z,1023.65
2017-12-19T05:16:37.969Z,1023.64
2017-12-19T05:17:38.061Z,1023.63
2017-12-19T05:18:37.967Z,1023.64
2017-12-19T05:19:37.940Z,1023.68
2017-12-19T05:20:37.933Z,1023.74
2017-12-19T05:21:37.923Z,1023.75
2017-12-19T05:22:37.922Z,1023.70
2017-12-19T05:23:37.916Z,1023.70
2017-12-19T05:24:37.896Z,1023.72
2017-12-19T05:25:37.889Z,1023.74
2017-12-19T05:26:37.882Z,1023.77
2017-12-19T05:27:37.872Z,1023.71
2017-12-19T05:28:37.862Z,1023.77
2017-12-19T05:29:37.855Z,1023.77
2017-12-19T05:30:37.939Z,1023.78
2017-12-19T05:31:37.905Z,1023.77
2017-12-19T05:32:37.830Z,1023.77
2017-12-19T05:33:37.818Z,1023.75
2017-12-19T05:34:37.811Z,1023.78
2017-12-19T05:35:37.801Z,1023.76
2017-12-19T05:36:37.792Z,1023.73
2017-12-19T05:37:37.783Z,1023.71
2017-12-19T05:38:37.773Z,1023.72
2017-12-19T05:39:37.766Z,1023.73
2017-12-19T05:40:37.781Z,1023.77
2017-12-19T05:41:37.747Z,1023.75
2017-12-19T05:42:37.738Z,1023.73
2017-12-19T05:43:37.732Z,1023.74
2017-12-19T05:44:37.721Z,1023.74
2017-12-19T05:45:37.712Z,1023.83
2017-12-19T05:46:37.708Z,1023.85
2017-12-19T05:47:37.730Z,1023.85
2017-12-19T05:48:37.755Z,1023.88
2017-12-19T05:49:37.699Z,1023.91
2017-12-19T05:50:37.668Z,1023.88
2017-12-19T05:51:37.660Z,1023.85
2017-12-19T05:52:37.651Z,1023.88
2017-12-19T05:53:37.641Z,1023.90
2017-12-19T05:54:37.633Z,1023.91
2017-12-19T05:55:37.670Z,1023.97
2017-12-19T05:56:37.616Z,1023.93
2017-12-19T05:57:37.605Z,1024.04
2017-12-19T05:58:37.614Z,1024.06
2017-12-19T05:59:37.641Z,1024.09
2017-12-19T06:00:37.581Z,1024.09
2017-12-19T06:01:37.569Z,1024.07
2017-12-19T06:02:37.561Z,1024.13
2017-12-19T06:03:37.555Z,1024.05
2017-12-19T06:04:37.545Z,1024.11
2017-12-19T06:05:37.569Z,1024.16
2017-12-19T06:06:37.532Z,1024.21
2017-12-19T06:07:37.535Z,1024.24
2017-12-19T06:08:37.507Z,1024.27
2017-12-19T06:09:37.498Z,1024.29
2017-12-19T06:10:37.488Z,1024.25
2017-12-19T06:11:37.488Z,1024.28
2017-12-19T06:12:37.474Z,1024.28
2017-12-19T06:13:37.461Z,1024.33
2017-12-19T06:14:37.453Z,1024.39
2017-12-19T06:15:37.446Z,1024.40
2017-12-19T06:16:37.439Z,1024.40
2017-12-19T06:17:37.425Z,1024.38
2017-12-19T06:18:37.407Z,1024.35
2017-12-19T06:19:37.471Z,1024.31
2017-12-19T06:20:37.481Z,1024.26
2017-12-19T06:21:37.390Z,1024.29
2017-12-19T06:22:37.380Z,1024.27
2017-12-19T06:23:37.378Z,1024.23
2017-12-19T06:24:37.366Z,1024.24
2017-12-19T06:25:37.358Z,1024.28
2017-12-19T06:26:37.349Z,1024.33
2017-12-19T06:27:37.336Z,1024.32
2017-12-19T06:28:37.329Z,1024.33
2017-12-19T06:29:37.317Z,1024.28
2017-12-19T06:30:37.310Z,1024.27
2017-12-19T06:31:37.291Z,1024.31
2017-12-19T06:32:37.290Z,1024.30
2017-12-19T06:33:37.284Z,1024.27
2017-12-19T06:34:37.275Z,1024.26
2017-12-19T06:35:37.266Z,1024.23
2017-12-19T06:36:37.259Z,1024.28
2017-12-19T06:37:37.248Z,1024.24
2017-12-19T06:38:37.441Z,1024.24
2017-12-19T06:39:37.235Z,1024.23
2017-12-19T06:40:37.222Z,1024.23
2017-12-19T06:41:37.213Z,1024.24
2017-12-19T06:42:37.238Z,1024.28
2017-12-19T06:43:37.198Z,1024.33
2017-12-19T06:44:37.186Z,1024.35
2017-12-19T06:45:37.179Z,1024.36
2017-12-19T06:46:37.168Z,1024.35
2017-12-19T06:47:37.159Z,1024.33
2017-12-19T06:48:37.210Z,1024.34
2017-12-19T06:49:37.196Z,1024.36
2017-12-19T06:50:37.122Z,1024.31
2017-12-19T06:51:37.128Z,1024.34
2017-12-19T06:52:37.115Z,1024.34
2017-12-19T06:53:37.107Z,1024.36
2017-12-19T06:54:37.134Z,1024.36
2017-12-19T06:55:37.160Z,1024.36
2017-12-19T06:56:37.083Z,1024.41
2017-12-19T06:57:37.071Z,1024.47
2017-12-19T06:58:37.061Z,1024.48
2017-12-19T06:59:37.051Z,1024.51
2017-12-19T07:00:37.045Z,1024.50
2017-12-19T07:01:37.035Z,1024.50
2017-12-19T07:02:37.085Z,1024.48
2017-12-19T07:03:37.008Z,1024.45
2017-12-19T07:04:37.012Z,1024.48
2017-12-19T07:05:37.000Z,1024.55
2017-12-19T07:06:36.991Z,1024.54
2017-12-19T07:07:36.984Z,1024.52
2017-12-19T07:08:37.031Z,1024.54
2017-12-19T07:09:36.964Z,1024.50
2017-12-19T07:10:36.957Z,1024.51
2017-12-19T07:11:36.950Z,1024.54
2017-12-19T07:12:36.939Z,1024.57
2017-12-19T07:13:36.968Z,1024.54
2017-12-19T07:14:36.966Z,1024.55
2017-12-19T07:15:37.048Z,1024.58
2017-12-19T07:16:36.905Z,1024.61
2017-12-19T07:17:36.895Z,1024.62
2017-12-19T07:18:36.887Z,1024.69
2017-12-19T07:19:36.878Z,1024.69
2017-12-19T07:20:36.869Z,1024.71
2017-12-19T07:21:36.955Z,1024.69
2017-12-19T07:22:36.905Z,1024.72
2017-12-19T07:23:36.841Z,1024.71
2017-12-19T07:24:36.835Z,1024.69
2017-12-19T07:25:36.824Z,1024.68
2017-12-19T07:26:36.817Z,1024.65
2017-12-19T07:27:36.809Z,1024.65
2017-12-19T07:28:36.796Z,1024.65
2017-12-19T07:29:36.789Z,1024.66
2017-12-19T07:30:36.781Z,1024.65
2017-12-19T07:31:36.762Z,1024.66
2017-12-19T07:32:36.833Z,1024.64
2017-12-19T07:33:36.753Z,1024.63
2017-12-19T07:34:36.745Z,1024.63
2017-12-19T07:35:36.737Z,1024.68
2017-12-19T07:36:36.729Z,1024.66
2017-12-19T07:37:36.802Z,1024.72
2017-12-19T07:38:36.700Z,1024.73
2017-12-19T07:39:36.702Z,1024.71
2017-12-19T07:40:36.694Z,1024.76
2017-12-19T07:41:36.686Z,1024.77
2017-12-19T07:42:36.675Z,1024.75
2017-12-19T07:43:36.669Z,1024.78
2017-12-19T07:44:36.658Z,1024.76
2017-12-19T07:45:36.664Z,1024.79
2017-12-19T07:46:36.642Z,1024.84
2017-12-19T07:47:36.632Z,1024.86
2017-12-19T07:48:36.625Z,1024.90
2017-12-19T07:49:36.615Z,1024.86
2017-12-19T07:50:36.606Z,1024.88
2017-12-19T07:51:36.602Z,1024.90
2017-12-19T07:52:36.609Z,1024.94
2017-12-19T07:53:36.579Z,1024.95
2017-12-19T07:54:36.570Z,1024.98
2017-12-19T07:55:36.562Z,1024.99
2017-12-19T07:56:36.553Z,1024.99
2017-12-19T07:57:36.546Z,1024.96
2017-12-19T07:58:36.542Z,1024.97
2017-12-19T07:59:36.551Z,1025.00
2017-12-19T08:00:36.547Z,1024.95
2017-12-19T08:01:36.513Z,1025.00
2017-12-19T08:02:36.501Z,1024.97
2017-12-19T08:03:36.493Z,1024.98
2017-12-19T08:04:36.483Z,1024.98
2017-12-19T08:05:36.475Z,1025.00
2017-12-19T08:06:36.494Z,1025.01
2017-12-19T08:07:36.500Z,1024.97
2017-12-19T08:08:36.609Z,1025.02
2017-12-19T08:09:36.439Z,1024.98
2017-12-19T08:10:36.432Z,1025.00
2017-12-19T08:11:36.632Z,1025.02
2017-12-19T08:12:36.533Z,1025.00
2017-12-19T08:13:36.394Z,1025.02
2017-12-19T08:14:36.398Z,1024.97
2017-12-19T08:15:36.387Z,1025.02
2017-12-19T08:16:36.379Z,1025.05
2017-12-19T08:17:36.371Z,1025.08
2017-12-19T08:18:36.367Z,1025.09
2017-12-19T08:19:36.353Z,1025.03
2017-12-19T08:20:36.343Z,1024.94
2017-12-19T08:21:36.335Z,1024.89
2017-12-19T08:22:36.387Z,1024.87
2017-12-19T08:23:36.605Z,1024.87
2017-12-19T08:24:36.311Z,1024.93
2017-12-19T08:25:36.300Z,1024.96
2017-12-19T08:26:36.293Z,1025.02
2017-12-19T08:27:36.284Z,1025.02
2017-12-19T08:28:36.280Z,1025.05
2017-12-19T08:29:36.438Z,1025.05
2017-12-19T08:30:36.249Z,1025.06
2017-12-19T08:31:36.240Z,1025.05
2017-12-19T08:32:36.243Z,1025.09
2017-12-19T08:33:36.236Z,1025.16
2017-12-19T08:34:36.224Z,1025.21
2017-12-19T08:35:36.216Z,1025.23
2017-12-19T08:36:36.208Z,1025.28
2017-12-19T08:37:36.197Z,1025.26
2017-12-19T08:38:36.193Z,1025.26
2017-12-19T08:39:36.227Z,1025.23
2017-12-19T08:40:36.190Z,1025.19
2017-12-19T08:41:36.165Z,1025.23
2017-12-19T08:42:36.157Z,1025.20
2017-12-19T08:43:36.153Z,1025.27
2017-12-19T08:44:36.141Z,1025.27
2017-12-19T08:45:36.138Z,1025.31
2017-12-19T08:46:36.122Z,1025.34
2017-12-19T08:47:36.125Z,1025.35
2017-12-19T08:48:36.389Z,1025.41
2017-12-19T08:49:36.099Z,1025.45
2017-12-19T08:50:36.086Z,1025.44
2017-12-19T08:51:36.083Z,1025.45
2017-12-19T08:52:36.073Z,1025.46
2017-12-19T08:53:36.083Z,1025.44
2017-12-19T08:54:36.054Z,1025.46
2017-12-19T08:55:36.046Z,1025.48
2017-12-19T08:56:36.040Z,1025.44
2017-12-19T08:57:36.027Z,1025.49
2017-12-19T08:58:36.019Z,1025.47
2017-12-19T08:59:36.012Z,1025.49
2017-12-19T09:00:36.013Z,1025.50
2017-12-19T09:01:36.150Z,1025.56
2017-12-19T09:02:35.990Z,1025.56
2017-12-19T09:03:35.983Z,1025.60
2017-12-19T09:04:35.978Z,1025.63
2017-12-19T09:05:35.953Z,1025.64
2017-12-19T09:06:36.016Z,1025.64
2017-12-19T09:07:35.945Z,1025.63
2017-12-19T09:08:35.941Z,1025.61
2017-12-19T09:09:36.291Z,1025.56
2017-12-19T09:10:35.920Z,1025.58
2017-12-19T09:11:35.911Z,1025.61
2017-12-19T09:12:35.909Z,1025.66
2017-12-19T09:13:35.907Z,1025.68
2017-12-19T09:14:35.888Z,1025.71
2017-12-19T09:15:35.880Z,1025.76
2017-12-19T09:16:35.934Z,1025.78
2017-12-19T09:17:35.864Z,1025.83
2017-12-19T09:18:35.857Z,1025.84
2017-12-19T09:19:35.842Z,1025.87
2017-12-19T09:20:35.838Z,1025.84
2017-12-19T09:21:35.875Z,1025.82
2017-12-19T09:22:35.877Z,1025.86
2017-12-19T09:23:36.053Z,1025.85
2017-12-19T09:24:35.807Z,1025.83
2017-12-19T09:25:35.799Z,1025.86
2017-12-19T09:26:35.779Z,1025.95
2017-12-19T09:27:35.782Z,1025.96
2017-12-19T09:28:35.779Z,1025.91
2017-12-19T09:29:35.764Z,1025.88
2017-12-19T09:30:35.760Z,1025.87
2017-12-19T09:31:35.750Z,1025.92
2017-12-19T09:32:35.862Z,1025.90
2017-12-19T09:33:35.735Z,1025.88
2017-12-19T09:34:35.727Z,1025.95
2017-12-19T09:35:35.716Z,1026.01
2017-12-19T09:36:35.710Z,1026.10
2017-12-19T09:37:35.771Z,1026.06
2017-12-19T09:38:35.691Z,1026.04
2017-12-19T09:39:35.686Z,1026.04
2017-12-19T09:40:35.738Z,1026.01
2017-12-19T09:41:35.785Z,1026.00
2017-12-19T09:42:35.659Z,1025.99
2017-12-19T09:43:35.655Z,1026.03
2017-12-19T09:44:35.649Z,1026.06
2017-12-19T09:45:35.635Z,1026.09
2017-12-19T09:46:35.637Z,1026.09
2017-12-19T09:47:35.608Z,1026.17
2017-12-19T09:48:35.733Z,1026.25
2017-12-19T09:49:35.608Z,1026.21
2017-12-19T09:50:35.595Z,1026.25
2017-12-19T09:51:35.588Z,1026.29
2017-12-19T09:52:35.578Z,1026.30
2017-12-19T09:53:35.571Z,1026.29
2017-12-19T09:54:35.563Z,1026.29
2017-12-19T09:55:35.565Z,1026.29
2017-12-19T09:56:35.584Z,1026.31
2017-12-19T09:57:35.535Z,1026.30
2017-12-19T09:58:35.529Z,1026.30
2017-12-19T09:59:35.521Z,1026.27
2017-12-19T10:00:35.512Z,1026.25
2017-12-19T10:01:35.501Z,1026.25
2017-12-19T10:02:35.507Z,1026.26
2017-12-19T10:03:35.617Z,1026.31
2017-12-19T10:04:35.622Z,1026.31
2017-12-19T10:05:35.471Z,1026.27
2017-12-19T10:06:35.464Z,1026.25
2017-12-19T10:07:35.456Z,1026.24
2017-12-19T10:08:35.445Z,1026.25
2017-12-19T10:09:35.437Z,1026.26
2017-12-19T10:10:35.431Z,1026.27
2017-12-19T10:11:35.444Z,1026.31
2017-12-19T10:12:35.413Z,1026.30
2017-12-19T10:13:35.406Z,1026.30
2017-12-19T10:14:35.400Z,1026.33
2017-12-19T10:15:35.598Z,1026.34
2017-12-19T10:16:35.436Z,1026.39
2017-12-19T10:17:35.405Z,1026.38
2017-12-19T10:18:35.365Z,1026.33
2017-12-19T10:19:35.356Z,1026.26
2017-12-19T10:20:35.349Z,1026.26
2017-12-19T10:21:35.340Z,1026.27
2017-12-19T10:22:35.393Z,1026.25
2017-12-19T10:23:35.482Z,1026.30
2017-12-19T10:24:35.329Z,1026.24
2017-12-19T10:25:35.307Z,1026.25
2017-12-19T10:26:35.299Z,1026.29
2017-12-19T10:27:35.292Z,1026.32
2017-12-19T10:28:35.287Z,1026.33
2017-12-19T10:29:35.277Z,1026.26
2017-12-19T10:30:35.268Z,1026.26
2017-12-19T10:31:35.260Z,1026.26
2017-12-19T10:32:35.253Z,1026.23
2017-12-19T10:33:35.243Z,1026.26
2017-12-19T10:34:35.237Z,1026.27
2017-12-19T10:35:35.262Z,1026.30
2017-12-19T10:36:35.224Z,1026.27
2017-12-19T10:37:35.213Z,1026.27
2017-12-19T10:38:35.229Z,1026.24
2017-12-19T10:39:35.250Z,1026.23
2017-12-19T10:40:35.190Z,1026.25
2017-12-19T10:41:35.180Z,1026.21
2017-12-19T10:42:35.172Z,1026.24
2017-12-19T10:43:35.165Z,1026.23
2017-12-19T10:44:35.166Z,1026.18
2017-12-19T10:45:35.151Z,1026.20
2017-12-19T10:46:35.143Z,1026.23
2017-12-19T10:47:35.134Z,1026.22
2017-12-19T10:48:35.136Z,1026.19
2017-12-19T10:49:35.145Z,1026.21
2017-12-19T10:50:35.205Z,1026.23
2017-12-19T10:51:35.107Z,1026.29
2017-12-19T10:52:35.097Z,1026.30
2017-12-19T10:53:35.087Z,1026.32
2017-12-19T10:54:35.081Z,1026.34
2017-12-19T10:55:35.072Z,1026.35
2017-12-19T10:56:35.066Z,1026.31
2017-12-19T10:57:35.065Z,1026.24
2017-12-19T10:58:35.050Z,1026.20
2017-12-19T10:59:35.064Z,1026.19
2017-12-19T11:00:35.089Z,1026.25
2017-12-19T11:01:35.026Z,1026.31
2017-12-19T11:02:35.023Z,1026.31
2017-12-19T11:03:35.085Z,1026.24
2017-12-19T11:04:35.034Z,1026.24
2017-12-19T11:05:34.997Z,1026.26
2017-12-19T11:06:34.996Z,1026.28
2017-12-19T11:07:34.981Z,1026.35
2017-12-19T11:08:34.980Z,1026.35
2017-12-19T11:09:35.044Z,1026.29
2017-12-19T11:10:34.957Z,1026.32
2017-12-19T11:11:34.955Z,1026.29
2017-12-19T11:12:34.945Z,1026.30
2017-12-19T11:13:34.933Z,1026.28
2017-12-19T11:14:34.927Z,1026.25
2017-12-19T11:15:34.921Z,1026.23
2017-12-19T11:16:34.999Z,1026.26
2017-12-19T11:17:34.901Z,1026.27
2017-12-19T11:18:34.901Z,1026.27
2017-12-19T11:19:34.891Z,1026.28
2017-12-19T11:20:34.889Z,1026.27
2017-12-19T11:21:34.946Z,1026.24
2017-12-19T11:22:34.931Z,1026.25
2017-12-19T11:23:34.860Z,1026.23
2017-12-19T11:24:34.857Z,1026.25
2017-12-19T11:25:34.866Z,1026.19
2017-12-19T11:26:34.838Z,1026.20
2017-12-19T11:27:34.830Z,1026.17
2017-12-19T11:28:34.824Z,1026.15
2017-12-19T11:29:34.815Z,1026.17
2017-12-19T11:30:34.809Z,1026.21
2017-12-19T11:31:34.806Z,1026.19
2017-12-19T11:32:34.808Z,1026.16
2017-12-19T11:33:34.913Z,1026.08
2017-12-19T11:34:34.779Z,1026.03
2017-12-19T11:35:34.770Z,1025.99
2017-12-19T11:36:34.840Z,1025.95
2017-12-19T11:37:34.785Z,1025.96
2017-12-19T11:38:34.754Z,1025.94
2017-12-19T11:39:34.739Z,1025.93
2017-12-19T11:40:34.732Z,1025.90
2017-12-19T11:41:34.772Z,1025.87
2017-12-19T11:42:34.775Z,1025.90
2017-12-19T11:43:34.710Z,1025.87
2017-12-19T11:44:34.704Z,1025.92
2017-12-19T11:45:34.697Z,1025.85
2017-12-19T11:46:34.689Z,1025.89
2017-12-19T11:47:34.681Z,1025.85
2017-12-19T11:48:34.673Z,1025.86
2017-12-19T11:49:34.665Z,1025.88
2017-12-19T11:50:34.658Z,1025.87
2017-12-19T11:51:34.735Z,1025.87
2017-12-19T11:52:34.647Z,1025.86
2017-12-19T11:53:34.636Z,1025.87
2017-12-19T11:54:34.629Z,1025.84
2017-12-19T11:55:34.618Z,1025.86
2017-12-19T11:56:34.612Z,1025.84
2017-12-19T11:57:34.606Z,1025.82
2017-12-19T11:58:34.624Z,1025.82
2017-12-19T11:59:34.617Z,1025.79
2017-12-19T12:00:34.593Z,1025.76
2017-12-19T12:01:34.574Z,1025.76
2017-12-19T12:02:34.568Z,1025.78
2017-12-19T12:03:34.562Z,1025.73
2017-12-19T12:04:34.553Z,1025.71
2017-12-19T12:05:34.545Z,1025.66